Kristin Faye — WDD2885 — position and weather

sailwx.info

Track history (hours):
 
Tides and Currents Weather Stations Pressure Air Temp Water Temp Dewpoint Dewpoint Depression Visibility Wind Speed Wind Dir Waves Ship Positions

Kristin Faye

Owner: Mitchell Liftboats LLC, New Iberia, LA. More information available from US FCC via Universal Licensing System and Coast Guard Vessel Documentation Center.

Last reported at 2014-Jul-23 14:33 UTC. Time now 2014-Nov-01 01:56 UTC.
Position N 29°31' W 091°16'.
Warning: this ship's position is months out of date.

Length 18 m; draft 2 m.

Type: Other ship. MMSI: 367121110.

Date/timePositionNaut miles runAvg speedWind from/ knotsBaromVisibWave heightAir tempDewpointWater temp
2014-Jul-23 14:33N 29°31' W 091°16'7 6.7
2014-Jul-23 13:33N 29°37' W 091°15'3 2.9
2014-Jul-23 12:32N 29°40' W 091°14'1 0.5
2014-Jul-23 11:28N 29°40' W 091°14'0 0.0
2014-Jul-23 10:31N 29°40' W 091°14'0 0.0
2014-Jul-23 09:31N 29°40' W 091°14'0 0.0
2014-Jul-23 08:31N 29°40' W 091°14'0 0.0
2014-Jul-23 07:28N 29°40' W 091°14'0 0.0
2014-Jul-23 06:31N 29°40' W 091°14'0 0.0
2014-Jul-23 05:31N 29°40' W 091°14'0 0.0
2014-Jul-23 04:31N 29°40' W 091°14'0 0.0
2014-Jul-23 03:31N 29°40' W 091°14'3 3.3
2014-Jul-23 02:34N 29°41' W 091°10'4 3.9
2014-Jul-23 01:33N 29°38' W 091°07'6 5.2
2014-Jul-23 00:24N 29°37' W 091°00'5 5.3
2014-Jul-22 23:32N 29°34' W 090°56'2 0.2
2014-Jul-22 09:29N 29°35' W 090°54'0 0.0
2014-Jul-22 08:29N 29°35' W 090°54'0 0.0
2014-Jul-22 07:29N 29°35' W 090°54'0 0.0
2014-Jul-22 06:11N 29°35' W 090°54'0 0.0
2014-Jul-22 02:29N 29°35' W 090°54'0 0.0
2014-Jul-22 01:11N 29°35' W 090°54'0 0.0
2014-Jul-20 17:16N 29°35' W 090°54'0 0.0
2014-Jul-20 16:16N 29°35' W 090°54'0 0.0
2014-Jul-19 06:10N 29°35' W 090°54'0 0.0
2014-Jul-19 05:28N 29°35' W 090°54'0 0.0
2014-Jul-18 12:10N 29°35' W 090°54'0 0.0
2014-Jul-18 09:22N 29°35' W 090°54'0 0.0
2014-Jul-17 13:05N 29°34' W 090°54'1 2.3
2014-Jul-17 12:33N 29°33' W 090°55'10 0.8
2014-Jul-17 00:22N 29°34' W 090°43'  
Track history (hours):
 
Tides and Currents Weather Stations Pressure Air Temp Water Temp Dewpoint Dewpoint Depression Visibility Wind Speed Wind Dir Waves Ship Positions

Kristin Faye

Owner: Mitchell Liftboats LLC, New Iberia, LA. More information available from US FCC via Universal Licensing System and Coast Guard Vessel Documentation Center.

Last reported at 2014-Jul-23 14:33 UTC. Time now 2014-Nov-01 01:56 UTC.
Position N 29°31' W 091°16'.
Warning: this ship's position is months out of date.

Length 18 m; draft 2 m.

Type: Other ship. MMSI: 367121110.

Date/timePositionNaut miles runAvg speedWind from/ knotsBaromVisibWave heightAir tempDewpointWater temp
2014-Jul-23 14:33N 29°31' W 091°16'7 6.7
2014-Jul-23 13:33N 29°37' W 091°15'3 2.9
2014-Jul-23 12:32N 29°40' W 091°14'1 0.5
2014-Jul-23 11:28N 29°40' W 091°14'0 0.0
2014-Jul-23 10:31N 29°40' W 091°14'0 0.0
2014-Jul-23 09:31N 29°40' W 091°14'0 0.0
2014-Jul-23 08:31N 29°40' W 091°14'0 0.0
2014-Jul-23 07:28N 29°40' W 091°14'0 0.0
2014-Jul-23 06:31N 29°40' W 091°14'0 0.0
2014-Jul-23 05:31N 29°40' W 091°14'0 0.0
2014-Jul-23 04:31N 29°40' W 091°14'0 0.0
2014-Jul-23 03:31N 29°40' W 091°14'3 3.3
2014-Jul-23 02:34N 29°41' W 091°10'4 3.9
2014-Jul-23 01:33N 29°38' W 091°07'6 5.2
2014-Jul-23 00:24N 29°37' W 091°00'5 5.3
2014-Jul-22 23:32N 29°34' W 090°56'2 0.2
2014-Jul-22 09:29N 29°35' W 090°54'0 0.0
2014-Jul-22 08:29N 29°35' W 090°54'0 0.0
2014-Jul-22 07:29N 29°35' W 090°54'0 0.0
2014-Jul-22 06:11N 29°35' W 090°54'0 0.0
2014-Jul-22 02:29N 29°35' W 090°54'0 0.0
2014-Jul-22 01:11N 29°35' W 090°54'0 0.0
2014-Jul-20 17:16N 29°35' W 090°54'0 0.0
2014-Jul-20 16:16N 29°35' W 090°54'0 0.0
2014-Jul-19 06:10N 29°35' W 090°54'0 0.0
2014-Jul-19 05:28N 29°35' W 090°54'0 0.0
2014-Jul-18 12:10N 29°35' W 090°54'0 0.0
2014-Jul-18 09:22N 29°35' W 090°54'0 0.0
2014-Jul-17 13:05N 29°34' W 090°54'1 2.3
2014-Jul-17 12:33N 29°33' W 090°55'10 0.8
2014-Jul-17 00:22N 29°34' W 090°43'  

Dump ship's entire track history